sensor_id;sensor_type;location;lat;lon;timestamp;P1;durP1;ratioP1;P2;durP2;ratioP2
27383;SDS011;14851;51.166;4.760;2022-11-15T00:01:14;46.67;;;31.60;;
27383;SDS011;14851;51.166;4.760;2022-11-15T00:06:49;49.35;;;31.73;;
27383;SDS011;14851;51.166;4.760;2022-11-15T00:09:35;51.92;;;33.08;;
27383;SDS011;14851;51.166;4.760;2022-11-15T00:12:20;46.33;;;31.42;;
27383;SDS011;14851;51.166;4.760;2022-11-15T00:15:08;45.22;;;27.98;;
27383;SDS011;14851;51.166;4.760;2022-11-15T00:17:53;47.35;;;34.08;;
27383;SDS011;14851;51.166;4.760;2022-11-15T00:20:37;39.80;;;26.65;;
27383;SDS011;14851;51.166;4.760;2022-11-15T00:23:22;48.05;;;32.65;;
27383;SDS011;14851;51.166;4.760;2022-11-15T00:26:07;47.78;;;32.13;;
27383;SDS011;14851;51.166;4.760;2022-11-15T00:28:56;47.03;;;31.42;;
27383;SDS011;14851;51.166;4.760;2022-11-15T00:31:43;52.92;;;32.92;;
27383;SDS011;14851;51.166;4.760;2022-11-15T00:34:30;51.30;;;33.05;;
27383;SDS011;14851;51.166;4.760;2022-11-15T00:37:14;53.28;;;33.10;;
27383;SDS011;14851;51.166;4.760;2022-11-15T00:39:59;49.47;;;30.88;;
27383;SDS011;14851;51.166;4.760;2022-11-15T00:42:45;49.88;;;31.85;;
27383;SDS011;14851;51.166;4.760;2022-11-15T00:45:29;42.58;;;29.00;;
27383;SDS011;14851;51.166;4.760;2022-11-15T00:48:14;50.58;;;33.42;;
27383;SDS011;14851;51.166;4.760;2022-11-15T00:50:58;46.15;;;31.27;;
27383;SDS011;14851;51.166;4.760;2022-11-15T00:53:43;48.20;;;31.95;;
27383;SDS011;14851;51.166;4.760;2022-11-15T00:56:27;49.50;;;33.13;;
27383;SDS011;14851;51.166;4.760;2022-11-15T00:59:12;50.25;;;34.13;;
27383;SDS011;14851;51.166;4.760;2022-11-15T01:01:57;49.15;;;30.77;;
27383;SDS011;14851;51.166;4.760;2022-11-15T01:04:41;47.38;;;30.42;;
27383;SDS011;14851;51.166;4.760;2022-11-15T01:07:25;50.17;;;33.42;;
27383;SDS011;14851;51.166;4.760;2022-11-15T01:10:10;54.78;;;34.00;;
27383;SDS011;14851;51.166;4.760;2022-11-15T01:13:00;50.10;;;32.65;;
27383;SDS011;14851;51.166;4.760;2022-11-15T01:15:48;42.33;;;28.52;;
27383;SDS011;14851;51.166;4.760;2022-11-15T01:18:34;55.85;;;33.22;;
27383;SDS011;14851;51.166;4.760;2022-11-15T01:21:20;54.75;;;34.00;;
27383;SDS011;14851;51.166;4.760;2022-11-15T01:24:06;55.80;;;32.75;;
27383;SDS011;14851;51.166;4.760;2022-11-15T01:26:51;51.80;;;32.60;;
27383;SDS011;14851;51.166;4.760;2022-11-15T01:29:36;52.13;;;34.50;;
27383;SDS011;14851;51.166;4.760;2022-11-15T01:32:21;46.70;;;32.60;;
27383;SDS011;14851;51.166;4.760;2022-11-15T01:35:06;41.63;;;27.45;;
27383;SDS011;14851;51.166;4.760;2022-11-15T01:37:52;49.30;;;30.67;;
27383;SDS011;14851;51.166;4.760;2022-11-15T01:40:36;51.30;;;33.03;;
27383;SDS011;14851;51.166;4.760;2022-11-15T01:43:25;44.45;;;30.02;;
27383;SDS011;14851;51.166;4.760;2022-11-15T01:46:33;46.75;;;30.73;;
27383;SDS011;14851;51.166;4.760;2022-11-15T01:49:20;55.53;;;35.33;;
27383;SDS011;14851;51.166;4.760;2022-11-15T01:52:10;43.35;;;29.10;;
27383;SDS011;14851;51.166;4.760;2022-11-15T01:55:04;50.65;;;31.95;;
27383;SDS011;14851;51.166;4.760;2022-11-15T01:57:53;46.22;;;30.65;;
27383;SDS011;14851;51.166;4.760;2022-11-15T02:00:40;40.95;;;26.35;;
27383;SDS011;14851;51.166;4.760;2022-11-15T02:03:26;52.25;;;32.95;;
27383;SDS011;14851;51.166;4.760;2022-11-15T02:06:21;52.28;;;33.45;;
27383;SDS011;14851;51.166;4.760;2022-11-15T02:09:06;45.17;;;29.98;;
27383;SDS011;14851;51.166;4.760;2022-11-15T02:11:51;64.57;;;38.55;;
27383;SDS011;14851;51.166;4.760;2022-11-15T02:14:38;60.90;;;36.55;;
27383;SDS011;14851;51.166;4.760;2022-11-15T02:26:49;43.78;;;28.10;;
27383;SDS011;14851;51.166;4.760;2022-11-15T02:32:44;48.72;;;30.75;;
27383;SDS011;14851;51.166;4.760;2022-11-15T02:35:34;44.78;;;28.08;;
27383;SDS011;14851;51.166;4.760;2022-11-15T02:42:00;61.65;;;37.17;;
27383;SDS011;14851;51.166;4.760;2022-11-15T02:45:11;65.97;;;39.25;;
27383;SDS011;14851;51.166;4.760;2022-11-15T02:50:49;57.05;;;33.40;;
27383;SDS011;14851;51.166;4.760;2022-11-15T02:53:34;58.70;;;36.20;;
27383;SDS011;14851;51.166;4.760;2022-11-15T02:56:20;59.78;;;34.60;;
27383;SDS011;14851;51.166;4.760;2022-11-15T02:59:08;60.40;;;37.85;;
27383;SDS011;14851;51.166;4.760;2022-11-15T03:11:13;66.03;;;38.53;;
27383;SDS011;14851;51.166;4.760;2022-11-15T03:16:55;60.17;;;34.72;;
27383;SDS011;14851;51.166;4.760;2022-11-15T03:19:52;58.70;;;34.38;;
27383;SDS011;14851;51.166;4.760;2022-11-15T03:22:40;59.08;;;37.00;;
27383;SDS011;14851;51.166;4.760;2022-11-15T03:25:28;64.72;;;37.22;;
27383;SDS011;14851;51.166;4.760;2022-11-15T03:28:17;64.35;;;36.00;;
27383;SDS011;14851;51.166;4.760;2022-11-15T03:31:06;69.85;;;38.30;;
27383;SDS011;14851;51.166;4.760;2022-11-15T03:34:25;69.32;;;37.65;;
27383;SDS011;14851;51.166;4.760;2022-11-15T03:37:15;55.30;;;33.03;;
27383;SDS011;14851;51.166;4.760;2022-11-15T03:40:01;71.00;;;39.85;;
27383;SDS011;14851;51.166;4.760;2022-11-15T03:45:51;74.28;;;39.78;;
27383;SDS011;14851;51.166;4.760;2022-11-15T03:48:49;70.22;;;39.58;;
27383;SDS011;14851;51.166;4.760;2022-11-15T03:51:37;77.35;;;38.65;;
27383;SDS011;14851;51.166;4.760;2022-11-15T03:54:21;69.65;;;38.15;;
27383;SDS011;14851;51.166;4.760;2022-11-15T03:57:05;66.93;;;38.90;;
27383;SDS011;14851;51.166;4.760;2022-11-15T03:59:53;65.20;;;39.47;;
27383;SDS011;14851;51.166;4.760;2022-11-15T04:02:37;57.28;;;32.22;;
27383;SDS011;14851;51.166;4.760;2022-11-15T04:05:24;68.32;;;39.15;;
27383;SDS011;14851;51.166;4.760;2022-11-15T04:08:08;71.07;;;37.85;;
27383;SDS011;14851;51.166;4.760;2022-11-15T04:10:53;67.68;;;36.13;;
27383;SDS011;14851;51.166;4.760;2022-11-15T04:13:37;69.43;;;38.03;;
27383;SDS011;14851;51.166;4.760;2022-11-15T04:16:22;62.55;;;33.03;;
27383;SDS011;14851;51.166;4.760;2022-11-15T04:19:06;75.93;;;40.63;;
27383;SDS011;14851;51.166;4.760;2022-11-15T04:22:09;65.07;;;35.10;;
27383;SDS011;14851;51.166;4.760;2022-11-15T04:25:12;65.05;;;37.42;;
27383;SDS011;14851;51.166;4.760;2022-11-15T04:27:59;52.85;;;32.65;;
27383;SDS011;14851;51.166;4.760;2022-11-15T04:30:44;53.58;;;31.77;;
27383;SDS011;14851;51.166;4.760;2022-11-15T04:33:28;55.35;;;32.85;;
27383;SDS011;14851;51.166;4.760;2022-11-15T04:36:13;46.63;;;29.48;;
27383;SDS011;14851;51.166;4.760;2022-11-15T04:39:15;54.28;;;32.33;;
27383;SDS011;14851;51.166;4.760;2022-11-15T04:42:00;56.72;;;30.52;;
27383;SDS011;14851;51.166;4.760;2022-11-15T04:44:45;59.22;;;33.47;;
27383;SDS011;14851;51.166;4.760;2022-11-15T04:47:30;62.50;;;32.03;;
27383;SDS011;14851;51.166;4.760;2022-11-15T04:50:15;56.17;;;33.58;;
27383;SDS011;14851;51.166;4.760;2022-11-15T04:53:00;49.85;;;32.15;;
27383;SDS011;14851;51.166;4.760;2022-11-15T04:55:51;56.92;;;30.85;;
27383;SDS011;14851;51.166;4.760;2022-11-15T04:58:38;52.92;;;32.33;;
27383;SDS011;14851;51.166;4.760;2022-11-15T05:01:23;47.90;;;28.50;;
27383;SDS011;14851;51.166;4.760;2022-11-15T05:04:07;42.72;;;25.90;;
27383;SDS011;14851;51.166;4.760;2022-11-15T05:07:04;42.92;;;24.58;;
27383;SDS011;14851;51.166;4.760;2022-11-15T05:09:48;44.30;;;26.40;;
27383;SDS011;14851;51.166;4.760;2022-11-15T05:12:33;39.38;;;23.80;;
27383;SDS011;14851;51.166;4.760;2022-11-15T05:15:20;41.65;;;25.17;;
27383;SDS011;14851;51.166;4.760;2022-11-15T05:18:05;39.55;;;23.38;;
27383;SDS011;14851;51.166;4.760;2022-11-15T05:20:52;32.80;;;21.58;;
27383;SDS011;14851;51.166;4.760;2022-11-15T05:23:36;35.17;;;21.02;;
27383;SDS011;14851;51.166;4.760;2022-11-15T05:26:21;32.22;;;20.05;;
27383;SDS011;14851;51.166;4.760;2022-11-15T05:29:09;32.70;;;19.90;;
27383;SDS011;14851;51.166;4.760;2022-11-15T05:31:54;28.98;;;19.05;;
27383;SDS011;14851;51.166;4.760;2022-11-15T05:34:39;31.83;;;18.40;;
27383;SDS011;14851;51.166;4.760;2022-11-15T05:37:23;31.80;;;19.42;;
27383;SDS011;14851;51.166;4.760;2022-11-15T05:40:09;28.02;;;18.25;;
27383;SDS011;14851;51.166;4.760;2022-11-15T05:42:54;27.20;;;17.55;;
27383;SDS011;14851;51.166;4.760;2022-11-15T05:45:39;27.48;;;18.80;;
27383;SDS011;14851;51.166;4.760;2022-11-15T05:48:23;31.58;;;18.48;;
27383;SDS011;14851;51.166;4.760;2022-11-15T05:51:07;32.25;;;18.92;;
27383;SDS011;14851;51.166;4.760;2022-11-15T05:53:53;26.85;;;16.55;;
27383;SDS011;14851;51.166;4.760;2022-11-15T05:56:40;25.95;;;17.33;;
27383;SDS011;14851;51.166;4.760;2022-11-15T05:59:28;24.90;;;17.33;;
27383;SDS011;14851;51.166;4.760;2022-11-15T06:02:14;25.50;;;17.27;;
27383;SDS011;14851;51.166;4.760;2022-11-15T06:05:01;26.08;;;17.15;;
27383;SDS011;14851;51.166;4.760;2022-11-15T06:07:45;23.15;;;16.15;;
27383;SDS011;14851;51.166;4.760;2022-11-15T06:10:30;27.77;;;15.40;;
27383;SDS011;14851;51.166;4.760;2022-11-15T06:13:15;23.85;;;16.42;;
27383;SDS011;14851;51.166;4.760;2022-11-15T06:16:00;23.35;;;16.08;;
27383;SDS011;14851;51.166;4.760;2022-11-15T06:18:45;27.08;;;16.52;;
27383;SDS011;14851;51.166;4.760;2022-11-15T06:21:30;25.48;;;16.17;;
27383;SDS011;14851;51.166;4.760;2022-11-15T06:24:15;26.90;;;17.65;;
27383;SDS011;14851;51.166;4.760;2022-11-15T06:26:59;30.10;;;16.33;;
27383;SDS011;14851;51.166;4.760;2022-11-15T06:29:44;21.67;;;17.50;;
27383;SDS011;14851;51.166;4.760;2022-11-15T06:32:28;31.73;;;18.25;;
27383;SDS011;14851;51.166;4.760;2022-11-15T06:35:14;26.33;;;17.65;;
27383;SDS011;14851;51.166;4.760;2022-11-15T06:38:06;23.60;;;16.67;;
27383;SDS011;14851;51.166;4.760;2022-11-15T06:40:52;28.48;;;16.63;;
27383;SDS011;14851;51.166;4.760;2022-11-15T06:43:38;23.02;;;16.58;;
27383;SDS011;14851;51.166;4.760;2022-11-15T06:46:23;23.80;;;15.20;;
27383;SDS011;14851;51.166;4.760;2022-11-15T06:49:07;19.27;;;14.95;;
27383;SDS011;14851;51.166;4.760;2022-11-15T06:51:54;25.98;;;15.13;;
27383;SDS011;14851;51.166;4.760;2022-11-15T06:54:38;20.13;;;15.48;;
27383;SDS011;14851;51.166;4.760;2022-11-15T06:57:23;22.95;;;15.40;;
27383;SDS011;14851;51.166;4.760;2022-11-15T07:00:11;24.95;;;14.48;;
27383;SDS011;14851;51.166;4.760;2022-11-15T07:02:59;19.27;;;13.50;;
27383;SDS011;14851;51.166;4.760;2022-11-15T07:05:53;20.25;;;13.35;;
27383;SDS011;14851;51.166;4.760;2022-11-15T07:08:39;17.80;;;11.77;;
27383;SDS011;14851;51.166;4.760;2022-11-15T07:11:25;16.42;;;11.10;;
27383;SDS011;14851;51.166;4.760;2022-11-15T07:14:09;17.42;;;11.38;;
27383;SDS011;14851;51.166;4.760;2022-11-15T07:16:54;14.90;;;10.07;;
27383;SDS011;14851;51.166;4.760;2022-11-15T07:19:39;16.45;;;11.13;;
27383;SDS011;14851;51.166;4.760;2022-11-15T07:22:23;16.17;;;10.85;;
27383;SDS011;14851;51.166;4.760;2022-11-15T07:25:09;17.33;;;10.75;;
27383;SDS011;14851;51.166;4.760;2022-11-15T07:27:55;14.60;;;10.63;;
27383;SDS011;14851;51.166;4.760;2022-11-15T07:30:41;22.20;;;10.98;;
27383;SDS011;14851;51.166;4.760;2022-11-15T07:33:26;14.23;;;9.32;;
27383;SDS011;14851;51.166;4.760;2022-11-15T07:36:10;16.35;;;10.68;;
27383;SDS011;14851;51.166;4.760;2022-11-15T07:38:54;19.33;;;10.25;;
27383;SDS011;14851;51.166;4.760;2022-11-15T07:41:38;16.42;;;10.45;;
27383;SDS011;14851;51.166;4.760;2022-11-15T07:44:23;13.88;;;10.85;;
27383;SDS011;14851;51.166;4.760;2022-11-15T07:47:09;15.75;;;11.18;;
27383;SDS011;14851;51.166;4.760;2022-11-15T07:50:01;21.02;;;11.35;;
27383;SDS011;14851;51.166;4.760;2022-11-15T07:52:47;13.73;;;10.25;;
27383;SDS011;14851;51.166;4.760;2022-11-15T07:55:41;17.63;;;10.85;;
27383;SDS011;14851;51.166;4.760;2022-11-15T07:58:25;17.23;;;11.35;;
27383;SDS011;14851;51.166;4.760;2022-11-15T08:01:12;16.58;;;11.45;;
27383;SDS011;14851;51.166;4.760;2022-11-15T08:03:56;21.05;;;11.68;;
27383;SDS011;14851;51.166;4.760;2022-11-15T08:06:41;15.55;;;10.73;;
27383;SDS011;14851;51.166;4.760;2022-11-15T08:09:25;16.73;;;10.45;;
27383;SDS011;14851;51.166;4.760;2022-11-15T08:12:10;15.25;;;10.40;;
27383;SDS011;14851;51.166;4.760;2022-11-15T08:14:55;15.13;;;10.95;;
27383;SDS011;14851;51.166;4.760;2022-11-15T08:17:40;17.95;;;10.75;;
27383;SDS011;14851;51.166;4.760;2022-11-15T08:20:25;11.32;;;8.48;;
27383;SDS011;14851;51.166;4.760;2022-11-15T08:23:12;12.85;;;9.65;;
27383;SDS011;14851;51.166;4.760;2022-11-15T08:26:00;13.20;;;8.73;;
27383;SDS011;14851;51.166;4.760;2022-11-15T08:28:46;11.50;;;8.18;;
27383;SDS011;14851;51.166;4.760;2022-11-15T08:31:32;15.48;;;8.15;;
27383;SDS011;14851;51.166;4.760;2022-11-15T08:34:16;13.80;;;8.43;;
27383;SDS011;14851;51.166;4.760;2022-11-15T08:37:01;39.17;;;11.77;;
27383;SDS011;14851;51.166;4.760;2022-11-15T08:39:45;12.00;;;9.13;;
27383;SDS011;14851;51.166;4.760;2022-11-15T08:42:29;15.13;;;9.73;;
27383;SDS011;14851;51.166;4.760;2022-11-15T08:45:14;11.07;;;8.70;;
27383;SDS011;14851;51.166;4.760;2022-11-15T08:48:04;18.50;;;8.55;;
27383;SDS011;14851;51.166;4.760;2022-11-15T08:50:54;12.20;;;8.73;;
27383;SDS011;14851;51.166;4.760;2022-11-15T08:53:39;10.30;;;7.35;;
27383;SDS011;14851;51.166;4.760;2022-11-15T08:56:24;11.18;;;6.88;;
27383;SDS011;14851;51.166;4.760;2022-11-15T08:59:09;9.80;;;6.05;;
27383;SDS011;14851;51.166;4.760;2022-11-15T09:01:55;8.90;;;5.32;;
27383;SDS011;14851;51.166;4.760;2022-11-15T09:04:43;10.40;;;4.75;;
27383;SDS011;14851;51.166;4.760;2022-11-15T09:07:29;8.50;;;4.70;;
27383;SDS011;14851;51.166;4.760;2022-11-15T09:10:21;8.40;;;4.60;;
27383;SDS011;14851;51.166;4.760;2022-11-15T09:13:06;7.07;;;3.22;;
27383;SDS011;14851;51.166;4.760;2022-11-15T09:15:50;9.30;;;3.75;;
27383;SDS011;14851;51.166;4.760;2022-11-15T09:18:35;15.00;;;5.15;;
27383;SDS011;14851;51.166;4.760;2022-11-15T09:21:19;6.47;;;3.10;;
27383;SDS011;14851;51.166;4.760;2022-11-15T09:24:04;8.70;;;3.17;;
27383;SDS011;14851;51.166;4.760;2022-11-15T09:26:50;6.47;;;3.13;;
27383;SDS011;14851;51.166;4.760;2022-11-15T09:29:34;6.45;;;2.40;;
27383;SDS011;14851;51.166;4.760;2022-11-15T09:32:22;10.23;;;2.15;;
27383;SDS011;14851;51.166;4.760;2022-11-15T09:35:10;5.32;;;2.17;;
27383;SDS011;14851;51.166;4.760;2022-11-15T09:37:54;8.60;;;3.50;;
27383;SDS011;14851;51.166;4.760;2022-11-15T09:40:38;5.13;;;1.70;;
27383;SDS011;14851;51.166;4.760;2022-11-15T09:43:38;10.30;;;2.35;;
27383;SDS011;14851;51.166;4.760;2022-11-15T09:49:55;4.68;;;1.30;;
27383;SDS011;14851;51.166;4.760;2022-11-15T09:52:31;6.22;;;1.52;;
27383;SDS011;14851;51.166;4.760;2022-11-15T09:55:02;7.70;;;1.27;;
27383;SDS011;14851;51.166;4.760;2022-11-15T09:57:38;8.27;;;1.80;;
27383;SDS011;14851;51.166;4.760;2022-11-15T10:00:20;4.35;;;1.30;;
27383;SDS011;14851;51.166;4.760;2022-11-15T10:05:50;7.28;;;1.50;;
27383;SDS011;14851;51.166;4.760;2022-11-15T10:08:31;4.95;;;1.15;;
27383;SDS011;14851;51.166;4.760;2022-11-15T10:11:19;5.95;;;1.65;;
27383;SDS011;14851;51.166;4.760;2022-11-15T10:13:50;5.93;;;1.38;;
27383;SDS011;14851;51.166;4.760;2022-11-15T10:24:25;4.78;;;1.30;;
27383;SDS011;14851;51.166;4.760;2022-11-15T10:26:56;7.93;;;1.50;;
27383;SDS011;14851;51.166;4.760;2022-11-15T10:29:23;4.47;;;0.90;;
27383;SDS011;14851;51.166;4.760;2022-11-15T10:31:55;5.35;;;1.25;;
27383;SDS011;14851;51.166;4.760;2022-11-15T10:34:22;8.93;;;1.40;;
27383;SDS011;14851;51.166;4.760;2022-11-15T10:36:56;8.40;;;1.55;;
27383;SDS011;14851;51.166;4.760;2022-11-15T10:39:23;4.25;;;1.33;;
27383;SDS011;14851;51.166;4.760;2022-11-15T10:41:50;4.22;;;1.17;;
27383;SDS011;14851;51.166;4.760;2022-11-15T10:46:47;5.07;;;0.95;;
27383;SDS011;14851;51.166;4.760;2022-11-15T10:57:28;4.47;;;0.90;;
27383;SDS011;14851;51.166;4.760;2022-11-15T11:05:32;4.80;;;1.05;;
27383;SDS011;14851;51.166;4.760;2022-11-15T11:08:20;5.70;;;1.10;;
27383;SDS011;14851;51.166;4.760;2022-11-15T11:13:26;7.63;;;1.30;;
27383;SDS011;14851;51.166;4.760;2022-11-15T11:18:26;3.58;;;1.13;;
27383;SDS011;14851;51.166;4.760;2022-11-15T11:21:08;3.60;;;0.85;;
27383;SDS011;14851;51.166;4.760;2022-11-15T11:29:03;5.35;;;1.27;;
27383;SDS011;14851;51.166;4.760;2022-11-15T11:43:04;5.47;;;1.30;;
27383;SDS011;14851;51.166;4.760;2022-11-15T11:48:14;5.18;;;1.30;;
27383;SDS011;14851;51.166;4.760;2022-11-15T11:50:52;8.32;;;1.48;;
27383;SDS011;14851;51.166;4.760;2022-11-15T11:53:39;6.35;;;1.17;;
27383;SDS011;14851;51.166;4.760;2022-11-15T11:56:19;9.00;;;2.22;;
27383;SDS011;14851;51.166;4.760;2022-11-15T11:59:07;3.78;;;1.15;;
27383;SDS011;14851;51.166;4.760;2022-11-15T12:01:41;5.80;;;1.27;;
27383;SDS011;14851;51.166;4.760;2022-11-15T12:04:21;7.88;;;1.35;;
27383;SDS011;14851;51.166;4.760;2022-11-15T12:17:35;4.68;;;1.30;;
27383;SDS011;14851;51.166;4.760;2022-11-15T12:20:06;5.40;;;0.82;;
27383;SDS011;14851;51.166;4.760;2022-11-15T12:23:28;3.83;;;0.98;;
27383;SDS011;14851;51.166;4.760;2022-11-15T12:25:33;4.50;;;1.02;;
27383;SDS011;14851;51.166;4.760;2022-11-15T12:28:14;4.00;;;1.00;;
27383;SDS011;14851;51.166;4.760;2022-11-15T12:30:44;8.02;;;1.17;;
27383;SDS011;14851;51.166;4.760;2022-11-15T12:33:35;6.63;;;1.20;;
27383;SDS011;14851;51.166;4.760;2022-11-15T12:36:29;11.00;;;1.42;;
27383;SDS011;14851;51.166;4.760;2022-11-15T12:39:10;5.82;;;1.15;;
27383;SDS011;14851;51.166;4.760;2022-11-15T12:41:39;5.30;;;1.40;;
27383;SDS011;14851;51.166;4.760;2022-11-15T12:44:55;4.82;;;1.55;;
27383;SDS011;14851;51.166;4.760;2022-11-15T12:49:47;5.18;;;1.40;;
27383;SDS011;14851;51.166;4.760;2022-11-15T12:52:14;9.63;;;1.40;;
27383;SDS011;14851;51.166;4.760;2022-11-15T13:02:24;6.82;;;1.10;;
27383;SDS011;14851;51.166;4.760;2022-11-15T13:04:51;7.82;;;1.10;;
27383;SDS011;14851;51.166;4.760;2022-11-15T13:10:01;5.75;;;1.10;;
27383;SDS011;14851;51.166;4.760;2022-11-15T13:18:15;4.15;;;1.20;;
27383;SDS011;14851;51.166;4.760;2022-11-15T13:20:59;5.50;;;1.30;;
27383;SDS011;14851;51.166;4.760;2022-11-15T13:23:27;5.78;;;1.30;;
27383;SDS011;14851;51.166;4.760;2022-11-15T13:26:08;7.93;;;1.50;;
27383;SDS011;14851;51.166;4.760;2022-11-15T13:31:26;6.72;;;1.33;;
27383;SDS011;14851;51.166;4.760;2022-11-15T13:33:57;5.63;;;1.20;;
27383;SDS011;14851;51.166;4.760;2022-11-15T13:36:35;6.22;;;1.33;;
27383;SDS011;14851;51.166;4.760;2022-11-15T13:41:51;3.22;;;1.30;;
27383;SDS011;14851;51.166;4.760;2022-11-15T13:44:22;4.35;;;1.30;;
27383;SDS011;14851;51.166;4.760;2022-11-15T13:49:31;5.03;;;1.45;;
27383;SDS011;14851;51.166;4.760;2022-11-15T13:51:59;2.80;;;0.90;;
27383;SDS011;14851;51.166;4.760;2022-11-15T13:57:12;4.53;;;1.30;;
27383;SDS011;14851;51.166;4.760;2022-11-15T13:59:49;2.33;;;0.90;;
27383;SDS011;14851;51.166;4.760;2022-11-15T14:02:17;3.78;;;1.17;;
27383;SDS011;14851;51.166;4.760;2022-11-15T14:04:52;5.57;;;1.00;;
27383;SDS011;14851;51.166;4.760;2022-11-15T14:09:51;6.28;;;1.50;;
27383;SDS011;14851;51.166;4.760;2022-11-15T14:12:25;7.47;;;1.35;;
27383;SDS011;14851;51.166;4.760;2022-11-15T14:15:00;5.47;;;1.55;;
27383;SDS011;14851;51.166;4.760;2022-11-15T14:17:44;5.28;;;1.67;;
27383;SDS011;14851;51.166;4.760;2022-11-15T14:23:25;5.72;;;1.25;;
27383;SDS011;14851;51.166;4.760;2022-11-15T14:25:53;6.82;;;1.88;;
27383;SDS011;14851;51.166;4.760;2022-11-15T14:30:53;4.50;;;1.40;;
27383;SDS011;14851;51.166;4.760;2022-11-15T14:36:06;6.75;;;1.50;;
27383;SDS011;14851;51.166;4.760;2022-11-15T14:38:42;2.75;;;1.00;;
27383;SDS011;14851;51.166;4.760;2022-11-15T14:41:33;5.68;;;1.30;;
27383;SDS011;14851;51.166;4.760;2022-11-15T14:44:00;6.95;;;1.50;;
27383;SDS011;14851;51.166;4.760;2022-11-15T14:46:29;3.10;;;1.00;;
27383;SDS011;14851;51.166;4.760;2022-11-15T14:48:55;2.88;;;1.20;;
27383;SDS011;14851;51.166;4.760;2022-11-15T14:51:21;4.68;;;1.27;;
27383;SDS011;14851;51.166;4.760;2022-11-15T14:53:47;2.85;;;1.25;;
27383;SDS011;14851;51.166;4.760;2022-11-15T14:56:14;3.45;;;1.00;;
27383;SDS011;14851;51.166;4.760;2022-11-15T14:58:41;3.90;;;1.10;;
27383;SDS011;14851;51.166;4.760;2022-11-15T15:01:10;5.55;;;1.23;;
27383;SDS011;14851;51.166;4.760;2022-11-15T15:03:48;3.10;;;1.33;;
27383;SDS011;14851;51.166;4.760;2022-11-15T15:06:17;5.18;;;1.70;;
27383;SDS011;14851;51.166;4.760;2022-11-15T15:08:47;6.75;;;1.40;;
27383;SDS011;14851;51.166;4.760;2022-11-15T15:11:21;4.15;;;1.75;;
27383;SDS011;14851;51.166;4.760;2022-11-15T15:13:50;5.28;;;1.77;;
27383;SDS011;14851;51.166;4.760;2022-11-15T15:16:17;5.38;;;1.60;;
27383;SDS011;14851;51.166;4.760;2022-11-15T15:18:46;2.92;;;1.52;;
27383;SDS011;14851;51.166;4.760;2022-11-15T15:21:19;2.45;;;1.13;;
27383;SDS011;14851;51.166;4.760;2022-11-15T15:23:47;4.20;;;1.55;;
27383;SDS011;14851;51.166;4.760;2022-11-15T15:26:13;4.50;;;1.67;;
27383;SDS011;14851;51.166;4.760;2022-11-15T15:28:39;4.20;;;1.58;;
27383;SDS011;14851;51.166;4.760;2022-11-15T15:31:06;4.95;;;1.50;;
27383;SDS011;14851;51.166;4.760;2022-11-15T15:33:33;5.30;;;1.70;;
27383;SDS011;14851;51.166;4.760;2022-11-15T15:35:59;5.55;;;1.48;;
27383;SDS011;14851;51.166;4.760;2022-11-15T15:38:26;5.10;;;1.58;;
27383;SDS011;14851;51.166;4.760;2022-11-15T15:40:52;3.20;;;1.42;;
27383;SDS011;14851;51.166;4.760;2022-11-15T15:43:20;3.33;;;1.55;;
27383;SDS011;14851;51.166;4.760;2022-11-15T15:45:46;2.47;;;1.55;;
27383;SDS011;14851;51.166;4.760;2022-11-15T15:48:13;4.28;;;1.75;;
27383;SDS011;14851;51.166;4.760;2022-11-15T15:50:42;2.38;;;1.45;;
27383;SDS011;14851;51.166;4.760;2022-11-15T15:53:11;5.68;;;1.95;;
27383;SDS011;14851;51.166;4.760;2022-11-15T15:55:42;4.53;;;1.90;;
27383;SDS011;14851;51.166;4.760;2022-11-15T15:58:08;3.83;;;2.08;;
27383;SDS011;14851;51.166;4.760;2022-11-15T16:00:35;3.60;;;1.90;;
27383;SDS011;14851;51.166;4.760;2022-11-15T16:03:02;2.25;;;1.60;;
27383;SDS011;14851;51.166;4.760;2022-11-15T16:05:30;3.22;;;1.77;;
27383;SDS011;14851;51.166;4.760;2022-11-15T16:07:57;2.85;;;1.80;;
27383;SDS011;14851;51.166;4.760;2022-11-15T16:10:24;4.43;;;1.75;;
27383;SDS011;14851;51.166;4.760;2022-11-15T16:12:55;3.83;;;1.98;;
27383;SDS011;14851;51.166;4.760;2022-11-15T16:15:23;3.53;;;1.90;;
27383;SDS011;14851;51.166;4.760;2022-11-15T16:17:53;2.90;;;1.88;;
27383;SDS011;14851;51.166;4.760;2022-11-15T16:20:40;2.90;;;2.10;;
27383;SDS011;14851;51.166;4.760;2022-11-15T16:23:11;3.47;;;1.90;;
27383;SDS011;14851;51.166;4.760;2022-11-15T16:25:50;4.70;;;2.63;;
27383;SDS011;14851;51.166;4.760;2022-11-15T16:28:26;5.47;;;2.50;;
27383;SDS011;14851;51.166;4.760;2022-11-15T16:31:04;4.25;;;2.15;;
27383;SDS011;14851;51.166;4.760;2022-11-15T16:33:35;4.63;;;2.67;;
27383;SDS011;14851;51.166;4.760;2022-11-15T16:36:03;6.75;;;3.38;;
27383;SDS011;14851;51.166;4.760;2022-11-15T16:38:30;5.00;;;2.97;;
27383;SDS011;14851;51.166;4.760;2022-11-15T16:40:57;4.00;;;2.85;;
27383;SDS011;14851;51.166;4.760;2022-11-15T16:43:23;4.90;;;3.30;;
27383;SDS011;14851;51.166;4.760;2022-11-15T16:45:49;7.07;;;3.50;;
27383;SDS011;14851;51.166;4.760;2022-11-15T16:48:21;5.22;;;2.95;;
27383;SDS011;14851;51.166;4.760;2022-11-15T16:50:53;6.15;;;3.55;;
27383;SDS011;14851;51.166;4.760;2022-11-15T16:53:22;4.45;;;3.42;;
27383;SDS011;14851;51.166;4.760;2022-11-15T16:55:48;5.95;;;3.53;;
27383;SDS011;14851;51.166;4.760;2022-11-15T16:58:14;4.82;;;3.10;;
27383;SDS011;14851;51.166;4.760;2022-11-15T17:00:41;4.55;;;3.15;;
27383;SDS011;14851;51.166;4.760;2022-11-15T17:03:08;4.25;;;3.25;;
27383;SDS011;14851;51.166;4.760;2022-11-15T17:05:35;5.78;;;3.72;;
27383;SDS011;14851;51.166;4.760;2022-11-15T17:08:02;6.05;;;3.40;;
27383;SDS011;14851;51.166;4.760;2022-11-15T17:10:29;4.70;;;3.10;;
27383;SDS011;14851;51.166;4.760;2022-11-15T17:12:54;4.45;;;3.33;;
27383;SDS011;14851;51.166;4.760;2022-11-15T17:15:21;4.28;;;3.60;;
27383;SDS011;14851;51.166;4.760;2022-11-15T17:17:52;4.80;;;3.15;;
27383;SDS011;14851;51.166;4.760;2022-11-15T17:20:21;6.53;;;5.25;;
27383;SDS011;14851;51.166;4.760;2022-11-15T17:22:49;5.25;;;4.10;;
27383;SDS011;14851;51.166;4.760;2022-11-15T17:25:20;10.07;;;7.35;;
27383;SDS011;14851;51.166;4.760;2022-11-15T17:27:46;7.30;;;5.32;;
27383;SDS011;14851;51.166;4.760;2022-11-15T17:30:12;7.68;;;4.60;;
27383;SDS011;14851;51.166;4.760;2022-11-15T17:32:39;8.77;;;6.55;;
27383;SDS011;14851;51.166;4.760;2022-11-15T17:35:09;6.35;;;4.40;;
27383;SDS011;14851;51.166;4.760;2022-11-15T17:37:38;8.45;;;4.60;;
27383;SDS011;14851;51.166;4.760;2022-11-15T17:40:06;5.40;;;4.20;;
27383;SDS011;14851;51.166;4.760;2022-11-15T17:42:34;6.22;;;5.63;;
27383;SDS011;14851;51.166;4.760;2022-11-15T17:45:01;10.20;;;6.93;;
27383;SDS011;14851;51.166;4.760;2022-11-15T17:47:27;10.85;;;8.23;;
27383;SDS011;14851;51.166;4.760;2022-11-15T17:49:53;47.15;;;42.53;;
27383;SDS011;14851;51.166;4.760;2022-11-15T17:52:24;12.50;;;11.20;;
27383;SDS011;14851;51.166;4.760;2022-11-15T17:54:51;11.40;;;10.27;;
27383;SDS011;14851;51.166;4.760;2022-11-15T17:57:18;9.00;;;5.47;;
27383;SDS011;14851;51.166;4.760;2022-11-15T17:59:44;5.65;;;4.80;;
27383;SDS011;14851;51.166;4.760;2022-11-15T18:02:11;11.05;;;9.93;;
27383;SDS011;14851;51.166;4.760;2022-11-15T18:04:37;7.03;;;5.28;;
27383;SDS011;14851;51.166;4.760;2022-11-15T18:07:05;9.80;;;6.13;;
27383;SDS011;14851;51.166;4.760;2022-11-15T18:09:31;11.20;;;9.57;;
27383;SDS011;14851;51.166;4.760;2022-11-15T18:11:58;14.18;;;9.70;;